sensor_id;sensor_type;location;lat;lon;timestamp;P1;durP1;ratioP1;P2;durP2;ratioP2
25045;SDS011;13044;49.304;12.840;2023-05-07T00:01:39;10.30;;;7.53;;
25045;SDS011;13044;49.304;12.840;2023-05-07T00:04:06;13.93;;;7.70;;
25045;SDS011;13044;49.304;12.840;2023-05-07T00:06:33;14.73;;;8.05;;
25045;SDS011;13044;49.304;12.840;2023-05-07T00:09:00;10.02;;;8.48;;
25045;SDS011;13044;49.304;12.840;2023-05-07T00:11:27;8.20;;;7.35;;
25045;SDS011;13044;49.304;12.840;2023-05-07T00:13:54;13.63;;;8.73;;
25045;SDS011;13044;49.304;12.840;2023-05-07T00:16:21;10.60;;;8.38;;
25045;SDS011;13044;49.304;12.840;2023-05-07T00:18:48;12.60;;;8.10;;
25045;SDS011;13044;49.304;12.840;2023-05-07T00:21:15;11.18;;;8.65;;
25045;SDS011;13044;49.304;12.840;2023-05-07T00:23:42;11.43;;;8.40;;
25045;SDS011;13044;49.304;12.840;2023-05-07T00:26:09;10.63;;;8.25;;
25045;SDS011;13044;49.304;12.840;2023-05-07T00:28:36;10.90;;;9.32;;
25045;SDS011;13044;49.304;12.840;2023-05-07T00:31:03;11.25;;;9.35;;
25045;SDS011;13044;49.304;12.840;2023-05-07T00:33:29;12.75;;;8.45;;
25045;SDS011;13044;49.304;12.840;2023-05-07T00:35:56;13.48;;;9.15;;
25045;SDS011;13044;49.304;12.840;2023-05-07T00:38:23;13.65;;;9.68;;
25045;SDS011;13044;49.304;12.840;2023-05-07T00:40:50;11.88;;;9.57;;
25045;SDS011;13044;49.304;12.840;2023-05-07T00:43:17;11.52;;;9.43;;
25045;SDS011;13044;49.304;12.840;2023-05-07T00:45:44;13.95;;;9.70;;
25045;SDS011;13044;49.304;12.840;2023-05-07T00:48:11;11.45;;;9.30;;
25045;SDS011;13044;49.304;12.840;2023-05-07T00:50:40;11.68;;;9.13;;
25045;SDS011;13044;49.304;12.840;2023-05-07T00:53:07;11.73;;;9.80;;
25045;SDS011;13044;49.304;12.840;2023-05-07T00:55:35;12.10;;;9.70;;
25045;SDS011;13044;49.304;12.840;2023-05-07T00:58:02;11.77;;;9.85;;
25045;SDS011;13044;49.304;12.840;2023-05-07T01:00:29;11.95;;;9.88;;
25045;SDS011;13044;49.304;12.840;2023-05-07T01:02:56;11.50;;;9.82;;
25045;SDS011;13044;49.304;12.840;2023-05-07T01:05:24;14.45;;;10.13;;
25045;SDS011;13044;49.304;12.840;2023-05-07T01:07:52;16.05;;;10.32;;
25045;SDS011;13044;49.304;12.840;2023-05-07T01:10:21;12.98;;;10.07;;
25045;SDS011;13044;49.304;12.840;2023-05-07T01:12:48;13.93;;;10.25;;
25045;SDS011;13044;49.304;12.840;2023-05-07T01:15:17;14.05;;;9.85;;
25045;SDS011;13044;49.304;12.840;2023-05-07T01:17:44;13.98;;;10.20;;
25045;SDS011;13044;49.304;12.840;2023-05-07T01:20:11;14.13;;;10.52;;
25045;SDS011;13044;49.304;12.840;2023-05-07T01:22:39;11.32;;;9.60;;
25045;SDS011;13044;49.304;12.840;2023-05-07T01:25:06;13.73;;;10.52;;
25045;SDS011;13044;49.304;12.840;2023-05-07T01:27:34;13.32;;;9.73;;
25045;SDS011;13044;49.304;12.840;2023-05-07T01:30:05;12.00;;;10.15;;
25045;SDS011;13044;49.304;12.840;2023-05-07T01:32:41;12.25;;;9.85;;
25045;SDS011;13044;49.304;12.840;2023-05-07T01:35:11;14.00;;;10.45;;
25045;SDS011;13044;49.304;12.840;2023-05-07T01:37:43;12.07;;;10.05;;
25045;SDS011;13044;49.304;12.840;2023-05-07T01:40:10;12.98;;;10.77;;
25045;SDS011;13044;49.304;12.840;2023-05-07T01:42:38;13.70;;;10.85;;
25045;SDS011;13044;49.304;12.840;2023-05-07T01:45:06;15.15;;;10.85;;
25045;SDS011;13044;49.304;12.840;2023-05-07T01:47:33;13.98;;;10.23;;
25045;SDS011;13044;49.304;12.840;2023-05-07T01:50:00;17.63;;;10.68;;
25045;SDS011;13044;49.304;12.840;2023-05-07T01:52:28;15.38;;;10.32;;
25045;SDS011;13044;49.304;12.840;2023-05-07T01:54:55;15.43;;;10.85;;
25045;SDS011;13044;49.304;12.840;2023-05-07T01:57:22;12.60;;;10.10;;
25045;SDS011;13044;49.304;12.840;2023-05-07T01:59:49;14.43;;;10.25;;
25045;SDS011;13044;49.304;12.840;2023-05-07T02:02:16;12.90;;;10.00;;
25045;SDS011;13044;49.304;12.840;2023-05-07T02:04:43;15.18;;;10.02;;
25045;SDS011;13044;49.304;12.840;2023-05-07T02:07:10;12.05;;;10.43;;
25045;SDS011;13044;49.304;12.840;2023-05-07T02:09:36;12.07;;;10.10;;
25045;SDS011;13044;49.304;12.840;2023-05-07T02:12:04;15.55;;;10.63;;
25045;SDS011;13044;49.304;12.840;2023-05-07T02:14:31;15.80;;;10.65;;
25045;SDS011;13044;49.304;12.840;2023-05-07T02:16:58;17.10;;;10.90;;
25045;SDS011;13044;49.304;12.840;2023-05-07T02:19:24;14.25;;;11.45;;
25045;SDS011;13044;49.304;12.840;2023-05-07T02:21:51;13.52;;;10.05;;
25045;SDS011;13044;49.304;12.840;2023-05-07T02:24:19;14.88;;;9.90;;
25045;SDS011;13044;49.304;12.840;2023-05-07T02:26:46;13.02;;;10.20;;
25045;SDS011;13044;49.304;12.840;2023-05-07T02:29:13;14.40;;;10.88;;
25045;SDS011;13044;49.304;12.840;2023-05-07T02:31:39;18.40;;;11.13;;
25045;SDS011;13044;49.304;12.840;2023-05-07T02:34:06;13.40;;;9.80;;
25045;SDS011;13044;49.304;12.840;2023-05-07T02:36:33;12.95;;;10.10;;
25045;SDS011;13044;49.304;12.840;2023-05-07T02:39:00;14.82;;;10.23;;
25045;SDS011;13044;49.304;12.840;2023-05-07T02:41:28;15.95;;;11.18;;
25045;SDS011;13044;49.304;12.840;2023-05-07T02:43:55;14.07;;;10.00;;
25045;SDS011;13044;49.304;12.840;2023-05-07T02:46:22;14.73;;;10.60;;
25045;SDS011;13044;49.304;12.840;2023-05-07T02:48:49;14.10;;;10.80;;
25045;SDS011;13044;49.304;12.840;2023-05-07T02:51:19;18.55;;;11.18;;
25045;SDS011;13044;49.304;12.840;2023-05-07T02:53:50;16.83;;;10.85;;
25045;SDS011;13044;49.304;12.840;2023-05-07T02:56:17;17.52;;;11.98;;
25045;SDS011;13044;49.304;12.840;2023-05-07T02:58:44;15.88;;;10.82;;
25045;SDS011;13044;49.304;12.840;2023-05-07T03:01:11;18.33;;;12.23;;
25045;SDS011;13044;49.304;12.840;2023-05-07T03:03:40;17.85;;;11.75;;
25045;SDS011;13044;49.304;12.840;2023-05-07T03:06:07;15.88;;;12.25;;
25045;SDS011;13044;49.304;12.840;2023-05-07T03:08:33;17.20;;;12.45;;
25045;SDS011;13044;49.304;12.840;2023-05-07T03:11:00;21.40;;;12.88;;
25045;SDS011;13044;49.304;12.840;2023-05-07T03:13:27;17.52;;;12.68;;
25045;SDS011;13044;49.304;12.840;2023-05-07T03:15:54;17.63;;;13.38;;
25045;SDS011;13044;49.304;12.840;2023-05-07T03:18:21;17.98;;;12.63;;
25045;SDS011;13044;49.304;12.840;2023-05-07T03:20:48;16.52;;;12.63;;
25045;SDS011;13044;49.304;12.840;2023-05-07T03:23:15;16.20;;;12.93;;
25045;SDS011;13044;49.304;12.840;2023-05-07T03:25:42;16.98;;;13.75;;
25045;SDS011;13044;49.304;12.840;2023-05-07T03:28:09;18.70;;;13.52;;
25045;SDS011;13044;49.304;12.840;2023-05-07T03:30:36;15.38;;;12.07;;
25045;SDS011;13044;49.304;12.840;2023-05-07T03:33:02;17.15;;;13.18;;
25045;SDS011;13044;49.304;12.840;2023-05-07T03:35:29;16.88;;;13.48;;
25045;SDS011;13044;49.304;12.840;2023-05-07T03:37:56;17.00;;;13.98;;
25045;SDS011;13044;49.304;12.840;2023-05-07T03:40:23;18.75;;;13.18;;
25045;SDS011;13044;49.304;12.840;2023-05-07T03:42:49;16.00;;;12.88;;
25045;SDS011;13044;49.304;12.840;2023-05-07T03:45:16;19.45;;;13.68;;
25045;SDS011;13044;49.304;12.840;2023-05-07T03:47:43;18.52;;;13.55;;
25045;SDS011;13044;49.304;12.840;2023-05-07T03:50:10;19.25;;;13.40;;
25045;SDS011;13044;49.304;12.840;2023-05-07T03:52:37;19.42;;;13.80;;
25045;SDS011;13044;49.304;12.840;2023-05-07T03:55:04;18.52;;;15.05;;
25045;SDS011;13044;49.304;12.840;2023-05-07T03:57:32;22.33;;;14.18;;
25045;SDS011;13044;49.304;12.840;2023-05-07T04:02:32;22.27;;;15.43;;
25045;SDS011;13044;49.304;12.840;2023-05-07T04:05:00;21.50;;;14.68;;
25045;SDS011;13044;49.304;12.840;2023-05-07T04:07:27;25.70;;;17.30;;
25045;SDS011;13044;49.304;12.840;2023-05-07T04:09:54;23.48;;;16.65;;
25045;SDS011;13044;49.304;12.840;2023-05-07T04:12:20;23.65;;;16.35;;
25045;SDS011;13044;49.304;12.840;2023-05-07T04:14:47;21.52;;;15.80;;
25045;SDS011;13044;49.304;12.840;2023-05-07T04:17:14;23.38;;;16.98;;
25045;SDS011;13044;49.304;12.840;2023-05-07T04:19:41;21.75;;;16.98;;
25045;SDS011;13044;49.304;12.840;2023-05-07T04:22:11;25.08;;;16.52;;
25045;SDS011;13044;49.304;12.840;2023-05-07T04:24:38;23.70;;;16.58;;
25045;SDS011;13044;49.304;12.840;2023-05-07T04:27:05;24.75;;;16.92;;
25045;SDS011;13044;49.304;12.840;2023-05-07T04:29:32;22.60;;;17.65;;
25045;SDS011;13044;49.304;12.840;2023-05-07T04:31:59;22.23;;;17.92;;
25045;SDS011;13044;49.304;12.840;2023-05-07T04:34:26;22.42;;;16.33;;
25045;SDS011;13044;49.304;12.840;2023-05-07T04:36:53;24.25;;;17.95;;
25045;SDS011;13044;49.304;12.840;2023-05-07T04:39:20;25.05;;;18.98;;
25045;SDS011;13044;49.304;12.840;2023-05-07T04:41:47;21.67;;;17.73;;
25045;SDS011;13044;49.304;12.840;2023-05-07T04:44:13;28.75;;;18.83;;
25045;SDS011;13044;49.304;12.840;2023-05-07T04:46:40;29.13;;;21.17;;
25045;SDS011;13044;49.304;12.840;2023-05-07T04:49:07;25.30;;;19.23;;
25045;SDS011;13044;49.304;12.840;2023-05-07T04:51:34;25.38;;;19.88;;
25045;SDS011;13044;49.304;12.840;2023-05-07T04:54:01;29.90;;;19.98;;
25045;SDS011;13044;49.304;12.840;2023-05-07T04:56:28;27.35;;;19.80;;
25045;SDS011;13044;49.304;12.840;2023-05-07T04:58:56;26.77;;;20.08;;
25045;SDS011;13044;49.304;12.840;2023-05-07T05:01:23;26.98;;;19.50;;
25045;SDS011;13044;49.304;12.840;2023-05-07T05:03:50;29.95;;;20.88;;
25045;SDS011;13044;49.304;12.840;2023-05-07T05:06:16;29.25;;;21.17;;
25045;SDS011;13044;49.304;12.840;2023-05-07T05:08:43;27.65;;;20.40;;
25045;SDS011;13044;49.304;12.840;2023-05-07T05:11:10;31.08;;;21.42;;
25045;SDS011;13044;49.304;12.840;2023-05-07T05:13:37;30.08;;;20.25;;
25045;SDS011;13044;49.304;12.840;2023-05-07T05:16:04;26.10;;;20.15;;
25045;SDS011;13044;49.304;12.840;2023-05-07T05:18:32;33.72;;;20.05;;
25045;SDS011;13044;49.304;12.840;2023-05-07T05:20:59;29.17;;;20.60;;
25045;SDS011;13044;49.304;12.840;2023-05-07T05:23:26;27.95;;;19.77;;
25045;SDS011;13044;49.304;12.840;2023-05-07T05:25:56;25.15;;;18.65;;
25045;SDS011;13044;49.304;12.840;2023-05-07T05:28:24;30.88;;;20.05;;
25045;SDS011;13044;49.304;12.840;2023-05-07T05:30:50;27.30;;;20.17;;
25045;SDS011;13044;49.304;12.840;2023-05-07T05:33:17;23.63;;;18.95;;
25045;SDS011;13044;49.304;12.840;2023-05-07T05:35:44;26.75;;;19.25;;
25045;SDS011;13044;49.304;12.840;2023-05-07T05:38:11;28.88;;;19.50;;
25045;SDS011;13044;49.304;12.840;2023-05-07T05:40:38;24.77;;;18.63;;
25045;SDS011;13044;49.304;12.840;2023-05-07T05:43:05;24.80;;;18.88;;
25045;SDS011;13044;49.304;12.840;2023-05-07T05:45:32;25.60;;;18.55;;
25045;SDS011;13044;49.304;12.840;2023-05-07T05:47:59;28.00;;;19.20;;
25045;SDS011;13044;49.304;12.840;2023-05-07T05:50:26;24.95;;;18.95;;
25045;SDS011;13044;49.304;12.840;2023-05-07T05:52:53;25.65;;;19.00;;
25045;SDS011;13044;49.304;12.840;2023-05-07T05:55:20;26.50;;;20.00;;
25045;SDS011;13044;49.304;12.840;2023-05-07T05:57:47;28.25;;;20.33;;
25045;SDS011;13044;49.304;12.840;2023-05-07T06:00:15;24.77;;;18.70;;
25045;SDS011;13044;49.304;12.840;2023-05-07T06:02:42;27.52;;;19.42;;
25045;SDS011;13044;49.304;12.840;2023-05-07T06:05:09;27.83;;;20.40;;
25045;SDS011;13044;49.304;12.840;2023-05-07T06:07:36;25.40;;;18.58;;
25045;SDS011;13044;49.304;12.840;2023-05-07T06:10:03;29.85;;;20.15;;
25045;SDS011;13044;49.304;12.840;2023-05-07T06:12:30;25.25;;;18.67;;
25045;SDS011;13044;49.304;12.840;2023-05-07T06:14:57;25.88;;;18.75;;
25045;SDS011;13044;49.304;12.840;2023-05-07T06:17:24;27.13;;;20.20;;
25045;SDS011;13044;49.304;12.840;2023-05-07T06:19:51;30.23;;;19.30;;
25045;SDS011;13044;49.304;12.840;2023-05-07T06:22:18;28.60;;;19.40;;
25045;SDS011;13044;49.304;12.840;2023-05-07T06:24:45;27.00;;;19.60;;
25045;SDS011;13044;49.304;12.840;2023-05-07T06:27:12;27.92;;;19.00;;
25045;SDS011;13044;49.304;12.840;2023-05-07T06:29:39;26.33;;;18.83;;
25045;SDS011;13044;49.304;12.840;2023-05-07T06:32:09;24.40;;;18.85;;
25045;SDS011;13044;49.304;12.840;2023-05-07T06:34:38;24.83;;;18.80;;
25045;SDS011;13044;49.304;12.840;2023-05-07T06:37:06;26.23;;;18.90;;
25045;SDS011;13044;49.304;12.840;2023-05-07T06:39:33;31.08;;;19.75;;
25045;SDS011;13044;49.304;12.840;2023-05-07T06:42:00;25.48;;;19.08;;
25045;SDS011;13044;49.304;12.840;2023-05-07T06:44:31;23.00;;;17.08;;
25045;SDS011;13044;49.304;12.840;2023-05-07T06:46:58;24.85;;;18.20;;
25045;SDS011;13044;49.304;12.840;2023-05-07T06:49:25;30.48;;;19.50;;
25045;SDS011;13044;49.304;12.840;2023-05-07T06:51:51;26.88;;;19.38;;
25045;SDS011;13044;49.304;12.840;2023-05-07T06:54:18;31.83;;;19.95;;
25045;SDS011;13044;49.304;12.840;2023-05-07T06:56:46;25.92;;;18.80;;
25045;SDS011;13044;49.304;12.840;2023-05-07T06:59:13;26.92;;;19.55;;
25045;SDS011;13044;49.304;12.840;2023-05-07T07:01:39;26.05;;;19.13;;
25045;SDS011;13044;49.304;12.840;2023-05-07T07:04:06;27.35;;;19.88;;
25045;SDS011;13044;49.304;12.840;2023-05-07T07:06:33;28.98;;;19.42;;
25045;SDS011;13044;49.304;12.840;2023-05-07T07:09:01;27.70;;;20.15;;
25045;SDS011;13044;49.304;12.840;2023-05-07T07:11:28;26.45;;;18.98;;
25045;SDS011;13044;49.304;12.840;2023-05-07T07:13:54;27.60;;;19.20;;
25045;SDS011;13044;49.304;12.840;2023-05-07T07:16:21;30.73;;;19.00;;
25045;SDS011;13044;49.304;12.840;2023-05-07T07:18:48;26.50;;;17.88;;
25045;SDS011;13044;49.304;12.840;2023-05-07T07:21:15;27.13;;;17.90;;
25045;SDS011;13044;49.304;12.840;2023-05-07T07:23:42;26.08;;;18.33;;
25045;SDS011;13044;49.304;12.840;2023-05-07T07:26:09;28.48;;;19.55;;
25045;SDS011;13044;49.304;12.840;2023-05-07T07:28:41;32.00;;;18.90;;
25045;SDS011;13044;49.304;12.840;2023-05-07T07:31:11;26.35;;;18.63;;
25045;SDS011;13044;49.304;12.840;2023-05-07T07:33:38;29.30;;;18.73;;
25045;SDS011;13044;49.304;12.840;2023-05-07T07:36:06;27.75;;;19.35;;
25045;SDS011;13044;49.304;12.840;2023-05-07T07:38:33;25.08;;;18.48;;
25045;SDS011;13044;49.304;12.840;2023-05-07T07:41:01;22.63;;;16.92;;
25045;SDS011;13044;49.304;12.840;2023-05-07T07:43:28;21.60;;;16.70;;
25045;SDS011;13044;49.304;12.840;2023-05-07T07:45:55;25.15;;;17.05;;
25045;SDS011;13044;49.304;12.840;2023-05-07T07:48:22;22.77;;;16.95;;
25045;SDS011;13044;49.304;12.840;2023-05-07T07:50:49;23.50;;;17.23;;
25045;SDS011;13044;49.304;12.840;2023-05-07T07:53:17;23.10;;;17.58;;
25045;SDS011;13044;49.304;12.840;2023-05-07T07:55:44;22.55;;;17.23;;
25045;SDS011;13044;49.304;12.840;2023-05-07T07:58:11;23.80;;;18.27;;
25045;SDS011;13044;49.304;12.840;2023-05-07T08:00:38;21.42;;;16.33;;
25045;SDS011;13044;49.304;12.840;2023-05-07T08:03:05;26.70;;;17.77;;
25045;SDS011;13044;49.304;12.840;2023-05-07T08:05:36;21.55;;;16.90;;
25045;SDS011;13044;49.304;12.840;2023-05-07T08:08:04;24.60;;;17.15;;
25045;SDS011;13044;49.304;12.840;2023-05-07T08:10:32;25.05;;;18.17;;
25045;SDS011;13044;49.304;12.840;2023-05-07T08:13:01;23.50;;;16.92;;
25045;SDS011;13044;49.304;12.840;2023-05-07T08:15:30;23.92;;;17.92;;
25045;SDS011;13044;49.304;12.840;2023-05-07T08:17:57;25.10;;;18.13;;
25045;SDS011;13044;49.304;12.840;2023-05-07T08:20:26;23.73;;;16.38;;
25045;SDS011;13044;49.304;12.840;2023-05-07T08:22:53;24.55;;;17.08;;
25045;SDS011;13044;49.304;12.840;2023-05-07T08:25:20;26.25;;;16.77;;
25045;SDS011;13044;49.304;12.840;2023-05-07T08:27:47;24.60;;;17.38;;
25045;SDS011;13044;49.304;12.840;2023-05-07T08:30:14;24.08;;;17.35;;
25045;SDS011;13044;49.304;12.840;2023-05-07T08:32:41;24.42;;;17.33;;
25045;SDS011;13044;49.304;12.840;2023-05-07T08:35:08;21.60;;;16.67;;
25045;SDS011;13044;49.304;12.840;2023-05-07T08:37:35;25.63;;;17.35;;
25045;SDS011;13044;49.304;12.840;2023-05-07T08:40:02;23.33;;;16.45;;
25045;SDS011;13044;49.304;12.840;2023-05-07T08:42:35;23.02;;;16.55;;
25045;SDS011;13044;49.304;12.840;2023-05-07T08:45:04;23.20;;;16.52;;
25045;SDS011;13044;49.304;12.840;2023-05-07T08:47:39;23.33;;;17.70;;
25045;SDS011;13044;49.304;12.840;2023-05-07T08:50:13;26.92;;;17.88;;
25045;SDS011;13044;49.304;12.840;2023-05-07T08:52:40;24.70;;;17.33;;
25045;SDS011;13044;49.304;12.840;2023-05-07T08:55:07;22.92;;;17.27;;
25045;SDS011;13044;49.304;12.840;2023-05-07T08:57:36;24.88;;;18.55;;
25045;SDS011;13044;49.304;12.840;2023-05-07T09:00:05;24.98;;;17.75;;
25045;SDS011;13044;49.304;12.840;2023-05-07T09:02:34;24.08;;;18.25;;
25045;SDS011;13044;49.304;12.840;2023-05-07T09:05:03;28.75;;;17.42;;
25045;SDS011;13044;49.304;12.840;2023-05-07T09:07:30;22.48;;;16.55;;
25045;SDS011;13044;49.304;12.840;2023-05-07T09:09:57;21.92;;;16.75;;
25045;SDS011;13044;49.304;12.840;2023-05-07T09:12:25;21.88;;;16.83;;
25045;SDS011;13044;49.304;12.840;2023-05-07T09:14:52;21.35;;;16.45;;
25045;SDS011;13044;49.304;12.840;2023-05-07T09:17:19;22.77;;;16.95;;
25045;SDS011;13044;49.304;12.840;2023-05-07T09:19:46;24.33;;;17.75;;
25045;SDS011;13044;49.304;12.840;2023-05-07T09:22:13;23.10;;;16.83;;
25045;SDS011;13044;49.304;12.840;2023-05-07T09:24:40;22.35;;;16.98;;
25045;SDS011;13044;49.304;12.840;2023-05-07T09:29:40;25.17;;;17.08;;
25045;SDS011;13044;49.304;12.840;2023-05-07T09:32:08;25.17;;;17.27;;
25045;SDS011;13044;49.304;12.840;2023-05-07T09:34:35;22.02;;;17.10;;
25045;SDS011;13044;49.304;12.840;2023-05-07T09:37:02;22.90;;;15.38;;
25045;SDS011;13044;49.304;12.840;2023-05-07T09:39:47;21.23;;;15.85;;
25045;SDS011;13044;49.304;12.840;2023-05-07T09:42:22;19.27;;;15.40;;
25045;SDS011;13044;49.304;12.840;2023-05-07T09:44:50;19.65;;;15.30;;
25045;SDS011;13044;49.304;12.840;2023-05-07T09:47:18;21.15;;;15.85;;
25045;SDS011;13044;49.304;12.840;2023-05-07T09:49:47;21.35;;;15.55;;
25045;SDS011;13044;49.304;12.840;2023-05-07T09:52:15;20.52;;;13.88;;
25045;SDS011;13044;49.304;12.840;2023-05-07T09:54:42;19.70;;;14.82;;
25045;SDS011;13044;49.304;12.840;2023-05-07T09:57:10;20.58;;;15.48;;
25045;SDS011;13044;49.304;12.840;2023-05-07T09:59:38;20.58;;;14.68;;
25045;SDS011;13044;49.304;12.840;2023-05-07T10:02:06;19.30;;;14.05;;
25045;SDS011;13044;49.304;12.840;2023-05-07T10:04:36;20.27;;;14.75;;
25045;SDS011;13044;49.304;12.840;2023-05-07T10:07:03;19.00;;;15.23;;
25045;SDS011;13044;49.304;12.840;2023-05-07T10:09:31;17.55;;;13.98;;
25045;SDS011;13044;49.304;12.840;2023-05-07T10:11:59;18.23;;;14.80;;
25045;SDS011;13044;49.304;12.840;2023-05-07T10:14:26;18.23;;;14.70;;
25045;SDS011;13044;49.304;12.840;2023-05-07T10:16:54;16.08;;;13.48;;
25045;SDS011;13044;49.304;12.840;2023-05-07T10:19:21;19.52;;;15.23;;
25045;SDS011;13044;49.304;12.840;2023-05-07T10:21:56;18.75;;;13.63;;
25045;SDS011;13044;49.304;12.840;2023-05-07T10:24:32;17.67;;;13.93;;
25045;SDS011;13044;49.304;12.840;2023-05-07T10:27:08;20.67;;;15.18;;
25045;SDS011;13044;49.304;12.840;2023-05-07T10:29:39;19.80;;;14.93;;
25045;SDS011;13044;49.304;12.840;2023-05-07T10:35:20;18.65;;;14.73;;
25045;SDS011;13044;49.304;12.840;2023-05-07T10:37:51;18.02;;;13.88;;
25045;SDS011;13044;49.304;12.840;2023-05-07T10:40:19;19.60;;;14.30;;
25045;SDS011;13044;49.304;12.840;2023-05-07T10:43:05;20.55;;;14.63;;
25045;SDS011;13044;49.304;12.840;2023-05-07T10:45:35;19.10;;;14.98;;
25045;SDS011;13044;49.304;12.840;2023-05-07T10:48:06;17.50;;;13.95;;
25045;SDS011;13044;49.304;12.840;2023-05-07T10:50:44;16.65;;;13.60;;
25045;SDS011;13044;49.304;12.840;2023-05-07T10:55:51;18.17;;;14.20;;
25045;SDS011;13044;49.304;12.840;2023-05-07T10:58:44;16.23;;;12.63;;
25045;SDS011;13044;49.304;12.840;2023-05-07T11:01:11;13.95;;;11.65;;
25045;SDS011;13044;49.304;12.840;2023-05-07T11:06:41;16.70;;;12.73;;
25045;SDS011;13044;49.304;12.840;2023-05-07T11:15:05;19.98;;;14.07;;
25045;SDS011;13044;49.304;12.840;2023-05-07T11:17:34;16.42;;;13.48;;
25045;SDS011;13044;49.304;12.840;2023-05-07T11:20:18;19.80;;;13.80;;
25045;SDS011;13044;49.304;12.840;2023-05-07T11:22:46;14.70;;;12.23;;
25045;SDS011;13044;49.304;12.840;2023-05-07T11:25:17;19.45;;;13.02;;
25045;SDS011;13044;49.304;12.840;2023-05-07T11:27:47;16.40;;;12.68;;
25045;SDS011;13044;49.304;12.840;2023-05-07T11:30:18;17.63;;;13.18;;
25045;SDS011;13044;49.304;12.840;2023-05-07T11:32:47;16.33;;;12.85;;
25045;SDS011;13044;49.304;12.840;2023-05-07T11:35:15;16.85;;;13.52;;
25045;SDS011;13044;49.304;12.840;2023-05-07T11:37:42;19.13;;;12.40;;
25045;SDS011;13044;49.304;12.840;2023-05-07T11:40:11;18.38;;;12.95;;
25045;SDS011;13044;49.304;12.840;2023-05-07T11:42:40;16.73;;;13.27;;
25045;SDS011;13044;49.304;12.840;2023-05-07T11:45:09;16.80;;;11.90;;
25045;SDS011;13044;49.304;12.840;2023-05-07T11:47:36;16.60;;;13.18;;
25045;SDS011;13044;49.304;12.840;2023-05-07T11:50:04;16.02;;;13.35;;
25045;SDS011;13044;49.304;12.840;2023-05-07T11:52:34;16.85;;;11.13;;
25045;SDS011;13044;49.304;12.840;2023-05-07T11:55:02;14.05;;;10.65;;
25045;SDS011;13044;49.304;12.840;2023-05-07T12:01:37;13.63;;;11.20;;
25045;SDS011;13044;49.304;12.840;2023-05-07T12:04:04;14.13;;;11.13;;
25045;SDS011;13044;49.304;12.840;2023-05-07T12:06:35;14.05;;;11.07;;
25045;SDS011;13044;49.304;12.840;2023-05-07T12:09:03;15.57;;;10.70;;
25045;SDS011;13044;49.304;12.840;2023-05-07T12:11:35;12.50;;;10.35;;
25045;SDS011;13044;49.304;12.840;2023-05-07T12:14:17;14.95;;;11.82;;
25045;SDS011;13044;49.304;12.840;2023-05-07T12:16:44;13.88;;;10.20;;
25045;SDS011;13044;49.304;12.840;2023-05-07T12:19:11;11.63;;;10.10;;
25045;SDS011;13044;49.304;12.840;2023-05-07T12:21:41;11.57;;;9.85;;
25045;SDS011;13044;49.304;12.840;2023-05-07T12:24:08;12.02;;;9.40;;
25045;SDS011;13044;49.304;12.840;2023-05-07T12:26:38;12.05;;;10.10;;
25045;SDS011;13044;49.304;12.840;2023-05-07T12:29:06;16.13;;;9.80;;
25045;SDS011;13044;49.304;12.840;2023-05-07T12:31:34;13.13;;;10.32;;
25045;SDS011;13044;49.304;12.840;2023-05-07T12:34:01;17.23;;;10.93;;
25045;SDS011;13044;49.304;12.840;2023-05-07T12:36:36;13.38;;;10.48;;
25045;SDS011;13044;49.304;12.840;2023-05-07T12:39:05;11.15;;;9.93;;
25045;SDS011;13044;49.304;12.840;2023-05-07T12:41:53;14.15;;;11.15;;
25045;SDS011;13044;49.304;12.840;2023-05-07T12:44:22;12.35;;;10.52;;
25045;SDS011;13044;49.304;12.840;2023-05-07T12:46:50;13.68;;;10.43;;
25045;SDS011;13044;49.304;12.840;2023-05-07T12:49:18;14.02;;;10.32;;
25045;SDS011;13044;49.304;12.840;2023-05-07T12:51:46;11.55;;;9.35;;
25045;SDS011;13044;49.304;12.840;2023-05-07T12:54:27;13.48;;;9.90;;
25045;SDS011;13044;49.304;12.840;2023-05-07T12:57:01;11.82;;;9.70;;
25045;SDS011;13044;49.304;12.840;2023-05-07T13:02:08;10.02;;;7.90;;
25045;SDS011;13044;49.304;12.840;2023-05-07T13:04:36;11.45;;;9.40;;
25045;SDS011;13044;49.304;12.840;2023-05-07T13:07:02;13.65;;;9.68;;
25045;SDS011;13044;49.304;12.840;2023-05-07T13:09:30;11.32;;;9.15;;
25045;SDS011;13044;49.304;12.840;2023-05-07T13:11:57;10.73;;;9.00;;
25045;SDS011;13044;49.304;12.840;2023-05-07T13:14:27;12.30;;;9.82;;
25045;SDS011;13044;49.304;12.840;2023-05-07T13:16:54;12.13;;;9.68;;
25045;SDS011;13044;49.304;12.840;2023-05-07T13:19:21;12.10;;;8.63;;
25045;SDS011;13044;49.304;12.840;2023-05-07T13:21:48;10.10;;;8.20;;
25045;SDS011;13044;49.304;12.840;2023-05-07T13:24:15;8.68;;;7.40;;
25045;SDS011;13044;49.304;12.840;2023-05-07T13:26:42;10.35;;;7.65;;
25045;SDS011;13044;49.304;12.840;2023-05-07T13:29:11;9.02;;;7.90;;
25045;SDS011;13044;49.304;12.840;2023-05-07T13:31:38;8.80;;;7.15;;
25045;SDS011;13044;49.304;12.840;2023-05-07T13:34:09;11.63;;;8.48;;
25045;SDS011;13044;49.304;12.840;2023-05-07T13:36:36;10.80;;;8.25;;
25045;SDS011;13044;49.304;12.840;2023-05-07T13:39:05;9.68;;;7.22;;
25045;SDS011;13044;49.304;12.840;2023-05-07T13:41:32;8.82;;;7.75;;
25045;SDS011;13044;49.304;12.840;2023-05-07T13:43:59;8.70;;;7.72;;
25045;SDS011;13044;49.304;12.840;2023-05-07T13:46:26;9.07;;;8.00;;
25045;SDS011;13044;49.304;12.840;2023-05-07T13:48:53;10.82;;;7.43;;
25045;SDS011;13044;49.304;12.840;2023-05-07T13:51:20;8.50;;;7.60;;
25045;SDS011;13044;49.304;12.840;2023-05-07T13:53:48;9.90;;;7.57;;
25045;SDS011;13044;49.304;12.840;2023-05-07T13:56:14;8.13;;;6.90;;
25045;SDS011;13044;49.304;12.840;2023-05-07T13:58:41;8.82;;;6.90;;
25045;SDS011;13044;49.304;12.840;2023-05-07T14:01:24;7.70;;;6.60;;
25045;SDS011;13044;49.304;12.840;2023-05-07T14:03:51;8.02;;;7.22;;
25045;SDS011;13044;49.304;12.840;2023-05-07T14:06:18;7.90;;;6.45;;
25045;SDS011;13044;49.304;12.840;2023-05-07T14:08:45;8.98;;;7.82;;
25045;SDS011;13044;49.304;12.840;2023-05-07T14:11:12;14.77;;;10.90;;
25045;SDS011;13044;49.304;12.840;2023-05-07T14:13:39;14.27;;;9.55;;
25045;SDS011;13044;49.304;12.840;2023-05-07T14:16:06;9.38;;;8.15;;
25045;SDS011;13044;49.304;12.840;2023-05-07T14:18:33;10.57;;;6.80;;
25045;SDS011;13044;49.304;12.840;2023-05-07T14:21:01;8.85;;;7.28;;
25045;SDS011;13044;49.304;12.840;2023-05-07T14:23:28;7.97;;;6.88;;
25045;SDS011;13044;49.304;12.840;2023-05-07T14:25:54;7.65;;;6.85;;
25045;SDS011;13044;49.304;12.840;2023-05-07T14:28:23;7.90;;;7.10;;
25045;SDS011;13044;49.304;12.840;2023-05-07T14:30:50;9.10;;;7.32;;
25045;SDS011;13044;49.304;12.840;2023-05-07T14:33:17;9.05;;;7.57;;
25045;SDS011;13044;49.304;12.840;2023-05-07T14:35:44;9.27;;;7.53;;
25045;SDS011;13044;49.304;12.840;2023-05-07T14:38:14;8.13;;;6.85;;
25045;SDS011;13044;49.304;12.840;2023-05-07T14:40:41;8.18;;;7.35;;
25045;SDS011;13044;49.304;12.840;2023-05-07T14:43:08;8.10;;;6.93;;
25045;SDS011;13044;49.304;12.840;2023-05-07T14:45:35;7.55;;;6.68;;